Time;durP1;ratioP1;P1;durP2;ratioP2;P2;SDS_P1;SDS_P2;PMS_P1;PMS_P2;Temp;Humidity;BMP_temperature;BMP_pressure;BME280_temperature;BME280_humidity;BME280_pressure;Samples;Min_cycle;Max_cycle;Signal;HPM_P1;HPM_P2
2022/12/21 00:01:14;;;;;;;0.50;0.40;;;8.30;99.90;;;;;;5076288;28;20481;-88
2022/12/21 00:03:42;;;;;;;0.73;0.50;;;8.40;99.90;;;;;;5076243;28;20471;-88
2022/12/21 00:06:10;;;;;;;0.40;0.30;;;8.40;99.90;;;;;;5076337;28;20468;-88
2022/12/21 00:08:41;;;;;;;0.40;0.40;;;8.50;99.90;;;;;;5076244;28;20821;-88
2022/12/21 00:11:08;;;;;;;0.60;0.40;;;8.50;99.90;;;;;;5076642;28;20434;-88
2022/12/21 00:13:35;;;;;;;0.40;0.40;;;8.50;99.90;;;;;;5076123;28;20994;-87
2022/12/21 00:16:05;;;;;;;0.47;0.37;;;8.60;99.90;;;;;;5075978;28;20445;-87
2022/12/21 00:18:33;;;;;;;7.60;1.37;;;8.50;99.90;;;;;;5076382;28;20449;-88
2022/12/21 00:21:01;;;;;;;0.53;0.40;;;8.50;99.90;;;;;;5075667;28;20489;-87
2022/12/21 00:23:29;;;;;;;0.60;0.40;;;8.40;99.90;;;;;;5075633;28;20484;-88
2022/12/21 00:25:59;;;;;;;0.60;0.60;;;8.40;99.90;;;;;;5075969;28;20445;-87
2022/12/21 00:28:26;;;;;;;0.60;0.60;;;8.40;99.90;;;;;;5075789;28;20473;-88
2022/12/21 00:30:53;;;;;;;0.73;0.40;;;8.40;99.90;;;;;;5075843;28;20925;-88
2022/12/21 00:33:19;;;;;;;0.40;0.40;;;8.40;99.90;;;;;;5075668;28;20469;-87
2022/12/21 00:35:50;;;;;;;0.40;0.40;;;8.50;99.90;;;;;;5075620;28;20449;-88
2022/12/21 00:38:18;;;;;;;0.73;0.50;;;8.50;99.90;;;;;;5075406;28;20449;-88
2022/12/21 00:40:45;;;;;;;1.70;0.70;;;8.40;99.90;;;;;;5075509;28;20452;-88
2022/12/21 00:43:13;;;;;;;0.40;0.40;;;8.50;99.90;;;;;;5075441;28;20469;-87
2022/12/21 00:45:40;;;;;;;1.87;0.97;;;8.50;99.90;;;;;;5075014;28;20453;-88
2022/12/21 00:48:08;;;;;;;0.37;0.33;;;8.50;99.90;;;;;;5075701;28;20430;-88
2022/12/21 00:50:34;;;;;;;0.47;0.47;;;8.50;99.90;;;;;;5075544;28;20924;-87
2022/12/21 00:53:01;;;;;;;0.40;0.40;;;8.50;99.90;;;;;;5075143;28;20469;-89
2022/12/21 00:55:28;;;;;;;0.40;0.30;;;8.50;99.90;;;;;;5075466;28;20449;-89
2022/12/21 00:57:55;;;;;;;0.60;0.50;;;8.50;99.90;;;;;;5075219;28;20461;-89
2022/12/21 01:00:23;;;;;;;0.40;0.40;;;8.50;99.90;;;;;;5075178;28;20442;-89
2022/12/21 01:02:50;;;;;;;0.70;0.40;;;8.40;99.90;;;;;;5074606;28;21034;-89
2022/12/21 01:05:17;;;;;;;0.80;0.47;;;8.50;99.90;;;;;;5074990;28;20452;-89
2022/12/21 01:07:44;;;;;;;2.67;0.83;;;8.40;99.90;;;;;;5075092;28;20789;-89
2022/12/21 01:10:11;;;;;;;0.50;0.40;;;8.40;99.90;;;;;;5075075;28;20453;-89
2022/12/21 01:12:38;;;;;;;1.27;0.40;;;8.30;99.90;;;;;;5074684;28;20937;-89
2022/12/21 01:15:06;;;;;;;0.37;0.33;;;8.30;99.90;;;;;;5075260;28;20454;-89
2022/12/21 01:17:34;;;;;;;1.77;1.03;;;8.20;99.90;;;;;;5074497;28;20433;-89
2022/12/21 01:20:01;;;;;;;0.40;0.40;;;8.20;99.90;;;;;;5075006;28;20452;-89
2022/12/21 01:22:28;;;;;;;0.40;0.30;;;8.20;99.90;;;;;;5074208;28;20481;-88
2022/12/21 01:24:55;;;;;;;0.50;0.40;;;8.20;99.90;;;;;;5074880;28;20434;-88
2022/12/21 01:27:22;;;;;;;0.30;0.30;;;8.30;99.90;;;;;;5074779;28;20472;-89
2022/12/21 01:29:48;;;;;;;0.50;0.40;;;8.30;99.90;;;;;;5074919;28;20452;-89
2022/12/21 01:32:15;;;;;;;0.40;0.40;;;8.20;99.90;;;;;;5074661;28;20480;-89
2022/12/21 01:34:43;;;;;;;0.67;0.60;;;8.20;99.90;;;;;;5074331;28;20499;-88
2022/12/21 01:37:10;;;;;;;0.73;0.30;;;8.20;99.90;;;;;;5074299;28;20457;-89
2022/12/21 01:39:37;;;;;;;0.63;0.63;;;8.20;99.90;;;;;;5074634;28;20441;-89
2022/12/21 01:42:04;;;;;;;0.50;0.50;;;8.20;99.90;;;;;;5074575;28;20477;-89
2022/12/21 01:45:00;;;;;;;0.50;0.40;;;8.30;99.90;;;;;;5074676;28;20469;-89
2022/12/21 01:47:31;;;;;;;0.30;0.30;;;8.20;99.90;;;;;;5074336;28;20448;-89
2022/12/21 01:50:03;;;;;;;1.17;0.73;;;8.30;99.90;;;;;;5074570;28;20437;-89
2022/12/21 01:52:31;;;;;;;0.50;0.40;;;8.30;99.90;;;;;;5074873;28;20422;-89
2022/12/21 01:55:03;;;;;;;0.60;0.60;;;8.30;99.90;;;;;;5074437;28;20445;-89
2022/12/21 01:57:32;;;;;;;0.60;0.60;;;8.30;99.90;;;;;;5073679;28;20440;-89
2022/12/21 02:00:01;;;;;;;0.70;0.60;;;8.30;99.90;;;;;;5074980;28;20445;-89
2022/12/21 02:02:33;;;;;;;0.60;0.50;;;8.30;99.90;;;;;;5074301;28;20485;-89
2022/12/21 02:05:10;;;;;;;1.57;0.60;;;8.30;99.90;;;;;;5074480;28;20777;-88
2022/12/21 02:07:38;;;;;;;0.43;0.43;;;8.30;99.90;;;;;;5074026;28;20439;-89
2022/12/21 02:10:08;;;;;;;0.60;0.40;;;8.30;99.90;;;;;;5074188;28;20807;-89
2022/12/21 02:12:36;;;;;;;0.40;0.40;;;8.30;99.90;;;;;;5075328;28;20440;-89
2022/12/21 02:15:04;;;;;;;0.43;0.30;;;8.40;99.90;;;;;;5073956;28;20952;-89
2022/12/21 02:17:41;;;;;;;1.50;0.40;;;8.30;99.90;;;;;;5074197;28;20449;-88
2022/12/21 02:20:36;;;;;;;1.10;0.50;;;8.40;99.90;;;;;;5074266;28;20434;-89
2022/12/21 02:23:50;;;;;;;1.23;0.40;;;8.40;99.90;;;;;;5073817;28;20494;-89
2022/12/21 02:26:41;;;;;;;0.63;0.50;;;8.40;99.90;;;;;;5074093;28;20422;-89
2022/12/21 02:29:46;;;;;;;0.47;0.40;;;8.40;99.90;;;;;;5074632;28;20429;-89
2022/12/21 02:32:23;;;;;;;0.30;0.30;;;8.50;99.90;;;;;;5074861;28;20426;-89
2022/12/21 02:35:00;;;;;;;0.40;0.40;;;8.50;99.90;;;;;;5075035;28;20464;-88
2022/12/21 02:37:32;;;;;;;0.40;0.40;;;8.50;99.90;;;;;;5074284;28;20415;-88
2022/12/21 02:40:05;;;;;;;0.70;0.40;;;8.50;99.90;;;;;;5075065;28;20411;-88
2022/12/21 02:45:28;;;;;;;0.40;0.30;;;8.70;99.90;;;;;;5073870;28;20416;-89
2022/12/21 02:48:03;;;;;;;0.30;0.30;;;8.60;99.90;;;;;;5074745;28;20433;-89
2022/12/21 02:50:35;;;;;;;0.40;0.40;;;8.60;99.90;;;;;;5073672;28;20429;-89
2022/12/21 02:53:07;;;;;;;0.43;0.40;;;8.60;99.90;;;;;;5073442;28;20461;-87
2022/12/21 02:55:34;;;;;;;0.60;0.60;;;8.60;99.90;;;;;;5073895;28;20414;-89
2022/12/21 02:58:15;;;;;;;0.87;0.50;;;8.60;99.90;;;;;;5073967;28;20450;-89
2022/12/21 03:00:53;;;;;;;0.50;0.30;;;8.60;99.90;;;;;;5073984;28;20445;-89
2022/12/21 03:03:50;;;;;;;0.90;0.90;;;8.60;99.90;;;;;;5073835;28;20484;-89
2022/12/21 03:06:37;;;;;;;0.40;0.40;;;8.60;99.90;;;;;;5074119;28;20437;-89
2022/12/21 03:09:18;;;;;;;0.40;0.40;;;8.60;99.90;;;;;;5075199;28;20438;-89
2022/12/21 03:11:52;;;;;;;0.87;0.30;;;8.50;99.90;;;;;;5077087;28;20430;-89
2022/12/21 03:14:30;;;;;;;0.30;0.30;;;8.40;99.90;;;;;;5077184;28;20444;-89
2022/12/21 03:17:05;;;;;;;0.40;0.30;;;8.40;99.90;;;;;;5077426;28;20441;-89
2022/12/21 03:19:41;;;;;;;1.43;0.73;;;8.40;99.90;;;;;;5077297;28;20433;-89
2022/12/21 03:22:16;;;;;;;0.57;0.57;;;8.50;99.90;;;;;;5077038;28;20457;-89
2022/12/21 03:24:48;;;;;;;0.60;0.30;;;8.50;99.90;;;;;;5076635;28;20858;-89
2022/12/21 03:27:18;;;;;;;2.30;2.10;;;8.50;99.90;;;;;;5076813;28;20920;-88
2022/12/21 03:29:51;;;;;;;0.40;0.37;;;8.50;99.90;;;;;;5077021;28;20442;-89
2022/12/21 03:32:23;;;;;;;0.40;0.33;;;8.50;99.90;;;;;;5077094;28;20524;-89
2022/12/21 03:34:54;;;;;;;0.40;0.40;;;8.40;99.90;;;;;;5076926;28;20472;-89
2022/12/21 03:37:24;;;;;;;0.40;0.40;;;8.40;99.90;;;;;;5076869;28;20826;-89
2022/12/21 03:39:56;;;;;;;0.60;0.40;;;8.40;99.90;;;;;;5076981;28;20963;-89
2022/12/21 03:42:28;;;;;;;0.50;0.50;;;8.40;99.90;;;;;;5076827;28;20466;-88
2022/12/21 03:44:58;;;;;;;0.40;0.30;;;8.40;99.90;;;;;;5077273;28;20942;-88
2022/12/21 03:47:30;;;;;;;2.67;0.63;;;8.40;99.90;;;;;;5076791;28;20426;-89
2022/12/21 03:50:01;;;;;;;1.53;0.40;;;8.40;99.90;;;;;;5077082;28;20460;-88
2022/12/21 03:52:35;;;;;;;0.60;0.40;;;8.50;99.90;;;;;;5076605;28;20434;-89
2022/12/21 03:55:05;;;;;;;0.43;0.43;;;8.50;99.90;;;;;;5076882;28;20432;-89
2022/12/21 03:57:32;;;;;;;0.30;0.30;;;8.40;99.90;;;;;;5076601;28;20445;-89
2022/12/21 04:00:03;;;;;;;0.43;0.43;;;8.50;99.90;;;;;;5076357;28;20460;-89
2022/12/21 04:02:38;;;;;;;1.23;0.40;;;8.40;99.90;;;;;;5076197;28;20496;-89
2022/12/21 04:05:11;;;;;;;1.90;0.30;;;8.40;99.90;;;;;;5076288;28;20437;-89
2022/12/21 04:07:40;;;;;;;0.60;0.37;;;8.40;99.90;;;;;;5076318;28;20446;-89
2022/12/21 04:10:10;;;;;;;1.30;1.00;;;8.40;99.90;;;;;;5076444;28;20441;-89
2022/12/21 04:12:36;;;;;;;0.57;0.40;;;8.40;99.90;;;;;;5076483;28;20414;-89
2022/12/21 04:15:04;;;;;;;0.97;0.87;;;8.40;99.90;;;;;;5076685;28;20442;-88
2022/12/21 04:17:30;;;;;;;0.60;0.60;;;8.40;99.90;;;;;;5076085;28;20456;-88
2022/12/21 04:19:59;;;;;;;0.50;0.40;;;8.50;99.90;;;;;;5075461;28;20437;-89
2022/12/21 04:28:10;;;;;;;0.50;0.50;;;8.40;99.90;;;;;;5076072;28;20413;-89
2022/12/21 04:30:38;;;;;;;0.30;0.30;;;8.50;99.90;;;;;;5075994;28;20434;-89
2022/12/21 04:33:05;;;;;;;0.60;0.40;;;8.40;99.90;;;;;;5075761;28;20462;-88
2022/12/21 04:35:32;;;;;;;0.30;0.20;;;8.50;99.90;;;;;;5076193;28;20453;-89
2022/12/21 04:38:00;;;;;;;0.50;0.50;;;8.50;99.90;;;;;;5075762;28;20445;-89
2022/12/21 04:40:27;;;;;;;0.40;0.30;;;8.50;99.90;;;;;;5075333;28;20932;-89
2022/12/21 04:42:54;;;;;;;0.83;0.40;;;8.60;99.90;;;;;;5075345;28;20485;-89
2022/12/21 04:45:21;;;;;;;0.93;0.70;;;8.50;99.90;;;;;;5075625;28;20455;-89
2022/12/21 04:47:48;;;;;;;0.40;0.40;;;8.50;99.90;;;;;;5075542;28;20461;-89
2022/12/21 04:50:14;;;;;;;0.40;0.30;;;8.50;99.90;;;;;;5075582;28;20450;-89
2022/12/21 04:52:41;;;;;;;0.40;0.30;;;8.60;99.90;;;;;;5075510;28;20444;-88
2022/12/21 04:55:09;;;;;;;0.40;0.30;;;8.60;99.90;;;;;;5075618;28;20449;-89
2022/12/21 04:57:36;;;;;;;0.40;0.30;;;8.60;99.90;;;;;;5075550;28;20445;-89
2022/12/21 05:00:05;;;;;;;0.40;0.30;;;8.60;99.90;;;;;;5075394;28;20429;-89
2022/12/21 05:02:31;;;;;;;13.30;0.87;;;8.60;99.90;;;;;;5074827;28;20470;-87
2022/12/21 05:04:58;;;;;;;0.30;0.30;;;8.60;99.90;;;;;;5075301;28;20452;-89
2022/12/21 05:07:25;;;;;;;0.40;0.30;;;8.60;99.90;;;;;;5075207;28;20446;-89
2022/12/21 05:09:52;;;;;;;0.40;0.40;;;8.60;99.90;;;;;;5075356;28;20448;-89
2022/12/21 05:12:20;;;;;;;0.63;0.57;;;8.70;99.90;;;;;;5075821;28;20940;-90
2022/12/21 05:14:46;;;;;;;0.67;0.67;;;8.70;99.90;;;;;;5075090;28;20480;-89
2022/12/21 05:17:13;;;;;;;0.50;0.50;;;8.70;99.90;;;;;;5075156;28;20472;-89
2022/12/21 05:19:40;;;;;;;0.40;0.30;;;8.60;99.90;;;;;;5074900;28;20445;-89
2022/12/21 05:22:07;;;;;;;0.50;0.40;;;8.60;99.90;;;;;;5074882;28;20464;-89
2022/12/21 05:24:33;;;;;;;1.47;0.33;;;8.50;99.90;;;;;;5074492;28;20496;-89
2022/12/21 05:27:00;;;;;;;0.90;0.30;;;8.50;99.90;;;;;;5074796;28;20963;-89
2022/12/21 05:29:28;;;;;;;1.03;0.30;;;8.50;99.90;;;;;;5074439;28;20936;-88
2022/12/21 05:31:55;;;;;;;0.40;0.33;;;8.40;99.90;;;;;;5074169;28;20446;-87
2022/12/21 05:34:21;;;;;;;0.30;0.30;;;8.40;99.90;;;;;;5074769;28;20469;-88
2022/12/21 05:36:48;;;;;;;0.70;0.70;;;8.40;99.90;;;;;;5074462;28;20821;-87
2022/12/21 05:39:15;;;;;;;0.57;0.30;;;8.40;99.90;;;;;;5074752;28;20445;-91
2022/12/21 05:41:42;;;;;;;0.30;0.30;;;8.30;99.90;;;;;;5074014;28;20959;-87
2022/12/21 05:44:09;;;;;;;0.30;0.30;;;8.30;99.90;;;;;;5074153;28;20489;-87
2022/12/21 05:46:37;;;;;;;0.40;0.30;;;8.30;99.90;;;;;;5074474;28;20498;-86
2022/12/21 05:49:04;;;;;;;0.30;0.30;;;8.30;99.90;;;;;;5074346;28;20449;-87
2022/12/21 05:51:31;;;;;;;0.40;0.40;;;8.30;99.90;;;;;;5073626;28;20952;-86
2022/12/21 05:53:58;;;;;;;0.30;0.27;;;8.20;99.90;;;;;;5073926;28;20472;-86
2022/12/21 05:56:24;;;;;;;0.40;0.37;;;8.30;99.90;;;;;;5073954;28;20449;-86
2022/12/21 05:58:51;;;;;;;0.73;0.50;;;8.30;99.90;;;;;;5073923;28;20430;-86
2022/12/21 06:01:18;;;;;;;0.30;0.30;;;8.30;99.90;;;;;;5074060;28;20941;-86
2022/12/21 06:03:46;;;;;;;0.30;0.27;;;8.30;99.90;;;;;;5076755;28;20496;-87
2022/12/21 06:06:15;;;;;;;0.30;0.30;;;8.30;99.90;;;;;;5074181;28;20941;-88
2022/12/21 06:08:43;;;;;;;0.40;0.30;;;8.20;99.90;;;;;;5074170;28;20499;-88
2022/12/21 06:11:11;;;;;;;0.40;0.40;;;8.20;99.90;;;;;;5073908;28;20450;-88
2022/12/21 06:13:38;;;;;;;0.40;0.40;;;8.20;99.90;;;;;;5074077;28;20457;-87
2022/12/21 06:16:07;;;;;;;0.60;0.40;;;8.20;99.90;;;;;;5074109;28;20448;-87
2022/12/21 06:18:34;;;;;;;0.40;0.30;;;8.20;99.90;;;;;;5073948;28;20445;-87
2022/12/21 06:21:02;;;;;;;0.40;0.40;;;8.20;99.90;;;;;;5073848;28;20449;-87
2022/12/21 06:23:29;;;;;;;0.43;0.40;;;8.20;99.90;;;;;;5073515;28;20499;-87
2022/12/21 06:25:57;;;;;;;0.40;0.40;;;8.20;99.90;;;;;;5073531;28;20461;-87
2022/12/21 06:28:24;;;;;;;0.57;0.47;;;8.20;99.90;;;;;;5073807;28;20445;-86
2022/12/21 06:30:51;;;;;;;0.40;0.30;;;8.20;99.90;;;;;;5073430;28;20941;-86
2022/12/21 06:33:18;;;;;;;0.30;0.30;;;8.20;99.90;;;;;;5073584;28;20858;-87
2022/12/21 06:35:45;;;;;;;0.67;0.27;;;8.10;99.90;;;;;;5073630;28;20441;-86
2022/12/21 06:38:13;;;;;;;0.37;0.30;;;8.10;99.90;;;;;;5073569;28;20441;-86
2022/12/21 06:40:41;;;;;;;0.40;0.30;;;8.20;99.90;;;;;;5073112;28;20449;-86
2022/12/21 06:43:07;;;;;;;0.40;0.40;;;8.20;99.90;;;;;;5073182;28;20996;-86
2022/12/21 06:45:34;;;;;;;0.40;0.30;;;8.10;99.90;;;;;;5077358;28;20805;-86
2022/12/21 06:48:01;;;;;;;0.40;0.33;;;8.20;99.90;;;;;;5077102;28;20452;-86
2022/12/21 06:50:27;;;;;;;0.30;0.30;;;8.10;99.90;;;;;;5077274;28;20453;-86
2022/12/21 06:52:54;;;;;;;0.40;0.40;;;8.10;99.90;;;;;;5077227;28;20465;-86
2022/12/21 06:55:23;;;;;;;0.40;0.30;;;8.10;99.90;;;;;;5076934;28;20959;-86
2022/12/21 06:57:49;;;;;;;0.40;0.30;;;8.10;99.90;;;;;;5077036;28;20450;-86
2022/12/21 07:00:17;;;;;;;1.33;0.80;;;8.10;99.90;;;;;;5076840;28;20453;-86
2022/12/21 07:02:44;;;;;;;0.50;0.50;;;8.10;99.90;;;;;;5076453;28;20534;-86
2022/12/21 07:05:10;;;;;;;1.93;0.57;;;8.00;99.90;;;;;;5076623;28;20936;-86
2022/12/21 07:07:37;;;;;;;0.30;0.30;;;8.10;99.90;;;;;;5076779;28;20453;-86
2022/12/21 07:10:04;;;;;;;0.40;0.33;;;8.10;99.90;;;;;;5076830;28;20467;-86
2022/12/21 07:12:33;;;;;;;0.40;0.33;;;8.10;99.90;;;;;;5076348;28;20954;-83
2022/12/21 07:14:59;;;;;;;0.30;0.30;;;8.10;99.90;;;;;;5076652;28;20928;-86
2022/12/21 07:17:26;;;;;;;2.00;0.40;;;8.10;99.90;;;;;;5076108;28;20462;-86
2022/12/21 07:19:53;;;;;;;0.30;0.30;;;8.10;99.90;;;;;;5076606;28;20445;-86
2022/12/21 07:22:19;;;;;;;0.30;0.30;;;8.10;99.90;;;;;;5076471;28;20445;-86
2022/12/21 07:24:46;;;;;;;0.40;0.40;;;8.00;99.90;;;;;;5075924;28;20499;-86
2022/12/21 07:27:13;;;;;;;0.90;0.50;;;8.10;99.90;;;;;;5076307;28;20807;-86
2022/12/21 07:29:41;;;;;;;1.17;0.50;;;8.00;99.90;;;;;;5076223;28;20956;-86
2022/12/21 07:32:08;;;;;;;0.47;0.30;;;8.00;99.90;;;;;;5076173;28;20453;-86
2022/12/21 07:34:35;;;;;;;0.30;0.30;;;8.00;99.90;;;;;;5076330;28;20469;-86
2022/12/21 07:37:01;;;;;;;0.30;0.30;;;8.00;99.90;;;;;;5076351;28;20441;-86
2022/12/21 07:39:28;;;;;;;0.37;0.37;;;7.90;99.90;;;;;;5076030;28;20440;-86
2022/12/21 07:41:55;;;;;;;0.30;0.30;;;8.00;99.90;;;;;;5076153;28;20445;-86
2022/12/21 07:44:22;;;;;;;0.50;0.30;;;8.00;99.90;;;;;;5076048;28;20481;-86
2022/12/21 07:46:51;;;;;;;0.40;0.30;;;7.90;99.90;;;;;;5075851;28;20476;-86
2022/12/21 07:49:17;;;;;;;0.30;0.30;;;8.00;99.90;;;;;;5075916;28;20502;-86
2022/12/21 07:51:44;;;;;;;0.50;0.47;;;8.00;99.90;;;;;;5075570;28;20953;-86
2022/12/21 07:54:11;;;;;;;0.40;0.33;;;8.00;99.90;;;;;;5075965;28;20472;-85
2022/12/21 07:56:38;;;;;;;1.37;0.50;;;8.00;99.90;;;;;;5075506;28;20460;-86
2022/12/21 07:59:04;;;;;;;0.60;0.40;;;8.00;99.90;;;;;;5072679;28;20925;-86
2022/12/21 08:01:31;;;;;;;1.30;0.40;;;8.10;99.90;;;;;;5066118;28;20895;-86
2022/12/21 08:04:00;;;;;;;0.40;0.40;;;8.10;99.90;;;;;;5055113;28;20494;-86
2022/12/21 08:06:27;;;;;;;0.30;0.20;;;8.10;99.90;;;;;;5055127;28;20466;-86
2022/12/21 08:08:54;;;;;;;0.50;0.40;;;8.10;99.90;;;;;;5053905;28;20446;-86
2022/12/21 08:11:20;;;;;;;0.30;0.30;;;8.10;99.90;;;;;;5055683;28;20446;-86
2022/12/21 08:13:49;;;;;;;0.30;0.30;;;8.10;99.90;;;;;;5055527;28;20465;-86
2022/12/21 08:16:17;;;;;;;0.30;0.30;;;8.10;99.90;;;;;;5055594;28;20814;-86
2022/12/21 08:18:44;;;;;;;0.30;0.30;;;8.10;99.90;;;;;;5054723;28;20930;-85
2022/12/21 08:21:12;;;;;;;0.30;0.30;;;8.10;99.90;;;;;;5055220;28;20446;-86
2022/12/21 08:23:40;;;;;;;0.73;0.50;;;8.10;99.90;;;;;;5054721;28;20601;-86
2022/12/21 08:26:10;;;;;;;0.43;0.43;;;8.20;99.90;;;;;;5055138;28;20858;-86
2022/12/21 08:28:36;;;;;;;0.30;0.27;;;8.10;99.90;;;;;;5054893;28;20456;-85
2022/12/21 08:31:05;;;;;;;0.40;0.30;;;8.10;99.90;;;;;;5054947;28;20453;-85
2022/12/21 08:33:32;;;;;;;0.40;0.40;;;8.10;99.90;;;;;;5054703;28;21000;-85
2022/12/21 08:35:59;;;;;;;0.93;0.40;;;8.10;99.90;;;;;;5055068;28;20446;-85
2022/12/21 08:38:27;;;;;;;1.60;0.53;;;8.10;99.90;;;;;;5054989;28;20851;-85
2022/12/21 08:40:54;;;;;;;0.40;0.30;;;8.10;99.90;;;;;;5054621;28;20458;-85
2022/12/21 08:43:21;;;;;;;0.40;0.40;;;8.20;99.90;;;;;;5054799;28;20482;-85
2022/12/21 08:45:48;;;;;;;0.60;0.50;;;8.20;99.90;;;;;;5054599;28;20442;-84
2022/12/21 08:48:14;;;;;;;0.40;0.37;;;8.10;99.90;;;;;;5054711;28;20456;-84
2022/12/21 08:50:41;;;;;;;0.40;0.30;;;8.10;99.90;;;;;;5054542;28;20964;-85
2022/12/21 08:53:08;;;;;;;0.50;0.40;;;8.20;99.90;;;;;;5054601;28;20473;-84
2022/12/21 08:55:36;;;;;;;0.40;0.33;;;8.10;99.90;;;;;;5054508;28;20450;-85
2022/12/21 08:58:02;;;;;;;0.40;0.40;;;8.10;99.90;;;;;;5054539;28;20458;-86
2022/12/21 09:00:29;;;;;;;0.77;0.77;;;8.10;99.90;;;;;;5054061;28;20989;-85
2022/12/21 09:02:56;;;;;;;0.30;0.30;;;8.10;99.90;;;;;;5054382;28;20465;-86
2022/12/21 09:05:23;;;;;;;0.70;0.70;;;8.10;99.90;;;;;;5054979;28;20494;-85
2022/12/21 09:07:49;;;;;;;0.30;0.30;;;8.20;99.90;;;;;;5053679;28;20455;-83
2022/12/21 09:10:16;;;;;;;0.50;0.50;;;8.10;99.90;;;;;;5054114;28;20451;-84
2022/12/21 09:12:44;;;;;;;0.50;0.37;;;8.20;99.90;;;;;;5053736;28;20450;-84
2022/12/21 09:15:11;;;;;;;0.40;0.40;;;8.10;99.90;;;;;;5053745;28;20979;-84
2022/12/21 09:17:38;;;;;;;0.40;0.40;;;8.10;99.90;;;;;;5053713;28;20497;-83
2022/12/21 09:20:06;;;;;;;0.40;0.40;;;8.10;99.90;;;;;;5054068;28;20457;-84
2022/12/21 09:22:33;;;;;;;0.60;0.40;;;8.10;99.90;;;;;;5053680;28;20450;-84
2022/12/21 09:25:00;;;;;;;1.10;0.57;;;8.00;99.90;;;;;;5053636;28;20990;-84
2022/12/21 09:27:27;;;;;;;0.60;0.57;;;8.10;99.90;;;;;;5053645;28;20938;-84
2022/12/21 09:29:55;;;;;;;0.40;0.30;;;8.10;99.90;;;;;;5054007;28;20446;-83
2022/12/21 09:32:22;;;;;;;0.40;0.40;;;8.10;99.90;;;;;;5053931;28;20430;-84
2022/12/21 09:34:48;;;;;;;2.60;0.60;;;8.10;99.90;;;;;;5053464;28;20992;-84
2022/12/21 09:37:15;;;;;;;1.10;0.80;;;8.10;99.90;;;;;;5053546;28;20435;-83
2022/12/21 09:39:42;;;;;;;0.50;0.47;;;8.20;99.90;;;;;;5053726;28;20443;-83
2022/12/21 09:42:26;;;;;;;0.37;0.33;;;8.20;99.90;;;;;;5051217;28;20447;-83
2022/12/21 09:45:08;;;;;;;0.60;0.43;;;8.20;99.90;;;;;;5052819;28;20489;-83
2022/12/21 09:47:43;;;;;;;0.30;0.30;;;8.20;99.90;;;;;;5053205;28;20513;-83
2022/12/21 09:50:16;;;;;;;0.50;0.30;;;8.20;99.90;;;;;;5053234;28;20430;-83
2022/12/21 09:52:46;;;;;;;1.80;0.50;;;8.20;99.90;;;;;;5053022;28;20968;-83
2022/12/21 09:55:16;;;;;;;0.50;0.50;;;8.20;99.90;;;;;;5052473;28;20446;-83
2022/12/21 09:57:44;;;;;;;0.40;0.30;;;8.30;99.90;;;;;;5052209;28;20427;-83
2022/12/21 10:00:17;;;;;;;0.57;0.57;;;8.30;99.90;;;;;;5051857;28;20446;-83
2022/12/21 10:03:07;;;;;;;0.60;0.50;;;8.30;99.90;;;;;;5053309;28;20438;-83
2022/12/21 10:05:45;;;;;;;0.70;0.30;;;8.40;99.90;;;;;;5052935;28;20474;-83
2022/12/21 10:08:46;;;;;;;0.40;0.40;;;8.40;99.90;;;;;;5052883;28;20449;-83
2022/12/21 10:11:21;;;;;;;1.27;0.77;;;8.50;99.90;;;;;;5053298;28;20435;-83
2022/12/21 10:13:55;;;;;;;0.40;0.40;;;8.60;99.90;;;;;;5052905;28;20466;-82
2022/12/21 10:16:31;;;;;;;0.40;0.40;;;8.70;99.90;;;;;;5053156;28;20500;-82
2022/12/21 10:19:06;;;;;;;0.37;0.37;;;8.80;99.90;;;;;;5054068;28;20917;-83
2022/12/21 10:21:46;;;;;;;0.60;0.60;;;8.90;99.90;;;;;;5056795;28;20500;-83
2022/12/21 10:24:21;;;;;;;0.80;0.60;;;8.90;99.90;;;;;;5056584;28;20497;-83
2022/12/21 10:26:52;;;;;;;0.50;0.40;;;9.10;99.90;;;;;;5057101;28;20457;-83
2022/12/21 10:29:24;;;;;;;1.33;1.20;;;9.20;99.90;;;;;;5056461;28;20450;-82
2022/12/21 10:31:55;;;;;;;2.50;0.50;;;9.40;99.90;;;;;;5057124;28;20438;-83
2022/12/21 10:34:25;;;;;;;0.40;0.37;;;9.40;99.90;;;;;;5056759;28;20991;-83
2022/12/21 10:36:56;;;;;;;0.93;0.70;;;9.50;99.90;;;;;;5056754;28;20446;-83
2022/12/21 10:39:23;;;;;;;0.53;0.47;;;9.40;99.90;;;;;;5056842;28;20426;-83
2022/12/21 10:41:53;;;;;;;3.23;0.63;;;9.50;99.90;;;;;;5057024;28;20450;-83
2022/12/21 10:44:20;;;;;;;0.43;0.43;;;9.50;99.90;;;;;;5056717;28;20497;-84
2022/12/21 10:46:48;;;;;;;1.03;0.53;;;9.50;99.90;;;;;;5056525;28;20493;-83
2022/12/21 10:49:23;;;;;;;0.50;0.50;;;9.50;99.90;;;;;;5056481;28;20521;-84
2022/12/21 10:51:50;;;;;;;1.07;1.07;;;9.40;99.90;;;;;;5056406;28;20802;-84
2022/12/21 10:54:26;;;;;;;0.40;0.40;;;9.30;99.90;;;;;;5056006;28;20474;-84
2022/12/21 10:56:53;;;;;;;2.73;0.70;;;9.20;99.90;;;;;;5056579;28;20450;-84
2022/12/21 10:59:24;;;;;;;0.77;0.77;;;9.10;99.90;;;;;;5056409;28;20674;-83
2022/12/21 11:01:51;;;;;;;2.40;1.17;;;9.10;99.90;;;;;;5056312;28;20422;-84
2022/12/21 11:04:31;;;;;;;0.60;0.40;;;9.20;99.90;;;;;;5055590;28;20508;-84
2022/12/21 11:07:03;;;;;;;0.50;0.40;;;9.10;99.90;;;;;;5056386;28;20461;-84
2022/12/21 11:09:38;;;;;;;2.00;0.40;;;9.30;99.90;;;;;;5056266;28;20445;-84
2022/12/21 11:12:18;;;;;;;0.40;0.40;;;9.40;99.90;;;;;;5056196;28;20454;-84
2022/12/21 11:14:45;;;;;;;0.40;0.37;;;9.60;99.90;;;;;;5056239;28;20466;-84
2022/12/21 11:17:20;;;;;;;1.90;0.50;;;9.60;99.90;;;;;;5056411;28;20446;-84
2022/12/21 11:19:51;;;;;;;0.50;0.40;;;9.60;99.90;;;;;;5056314;28;20438;-84
2022/12/21 11:22:26;;;;;;;1.17;0.50;;;9.80;99.90;;;;;;5056341;28;20456;-84
2022/12/21 11:24:56;;;;;;;0.83;0.60;;;10.00;99.90;;;;;;5055953;28;20596;-84
2022/12/21 11:27:27;;;;;;;1.90;0.83;;;10.00;99.90;;;;;;5056232;28;20460;-84
2022/12/21 11:29:56;;;;;;;0.50;0.50;;;10.10;99.90;;;;;;5055739;28;20431;-84
2022/12/21 11:32:24;;;;;;;0.50;0.50;;;9.90;99.90;;;;;;5056155;28;20442;-84
2022/12/21 11:34:54;;;;;;;0.40;0.40;;;9.80;99.90;;;;;;5055362;28;20477;-84
2022/12/21 11:37:27;;;;;;;0.40;0.37;;;9.80;99.90;;;;;;5055920;28;20434;-84
2022/12/21 11:39:57;;;;;;;0.60;0.60;;;9.70;99.90;;;;;;5055851;28;20438;-85
2022/12/21 11:42:26;;;;;;;0.50;0.40;;;9.70;99.90;;;;;;5055543;28;20454;-84
2022/12/21 11:45:10;;;;;;;0.40;0.40;;;9.70;99.90;;;;;;5065934;28;20485;-84
2022/12/21 11:47:49;;;;;;;1.17;0.40;;;9.80;99.90;;;;;;5075369;28;20434;-83
2022/12/21 11:50:32;;;;;;;0.40;0.30;;;9.90;99.90;;;;;;5076034;28;20441;-82
2022/12/21 11:53:16;;;;;;;0.40;0.30;;;10.00;99.90;;;;;;5075584;28;20476;-86
2022/12/21 11:55:57;;;;;;;0.67;0.60;;;10.20;99.90;;;;;;5075854;28;20438;-86
2022/12/21 11:58:42;;;;;;;0.30;0.30;;;10.40;99.90;;;;;;5064482;28;20450;-86
2022/12/21 12:01:22;;;;;;;0.50;0.50;;;10.60;99.90;;;;;;5056002;28;20517;-86
2022/12/21 12:04:05;;;;;;;0.47;0.47;;;10.70;99.90;;;;;;5055752;28;20467;-86
2022/12/21 12:07:06;;;;;;;0.43;0.40;;;10.60;99.90;;;;;;5055290;28;20430;-85
2022/12/21 12:09:47;;;;;;;0.97;0.40;;;10.70;99.90;;;;;;5052488;28;20527;-86
2022/12/21 12:12:22;;;;;;;0.30;0.30;;;10.60;99.90;;;;;;5055625;28;20435;-86
2022/12/21 12:15:03;;;;;;;1.43;0.83;;;10.50;99.90;;;;;;5055222;28;20466;-86
2022/12/21 12:17:45;;;;;;;0.67;0.67;;;10.40;99.90;;;;;;5055557;28;20419;-85
2022/12/21 12:20:25;;;;;;;0.40;0.40;;;10.40;99.90;;;;;;5055186;28;20921;-86
2022/12/21 12:23:04;;;;;;;0.60;0.33;;;10.40;99.90;;;;;;5054757;28;20486;-86
2022/12/21 12:25:47;;;;;;;0.50;0.33;;;10.50;99.90;;;;;;5055860;28;20482;-86
2022/12/21 12:28:39;;;;;;;0.50;0.50;;;10.60;99.90;;;;;;5055224;28;20906;-86
2022/12/21 12:31:18;;;;;;;1.17;0.43;;;10.70;99.90;;;;;;5019687;28;20446;-86
2022/12/21 12:34:04;;;;;;;1.27;0.50;;;10.80;99.90;;;;;;5055458;28;20470;-86
2022/12/21 12:36:39;;;;;;;0.60;0.60;;;10.70;99.90;;;;;;5055139;28;20454;-86
2022/12/21 12:39:15;;;;;;;2.70;1.17;;;10.70;99.90;;;;;;5052705;28;20450;-86
2022/12/21 12:41:49;;;;;;;1.17;0.50;;;10.70;99.90;;;;;;5053981;28;20441;-86
2022/12/21 12:44:25;;;;;;;0.40;0.33;;;10.70;99.90;;;;;;5055108;28;20450;-86
2022/12/21 12:47:09;;;;;;;1.07;0.70;;;10.70;99.90;;;;;;5054668;28;20434;-86
2022/12/21 12:49:53;;;;;;;0.43;0.43;;;10.70;99.90;;;;;;5054369;28;20434;-86
2022/12/21 12:52:34;;;;;;;0.37;0.30;;;10.70;99.90;;;;;;5057131;28;20802;-86
2022/12/21 12:55:12;;;;;;;0.30;0.30;;;10.70;99.90;;;;;;5055059;28;20437;-86
2022/12/21 12:57:48;;;;;;;0.50;0.50;;;10.80;99.90;;;;;;5054910;28;20469;-86
2022/12/21 13:00:18;;;;;;;0.40;0.30;;;10.80;99.90;;;;;;5054567;28;20427;-86
2022/12/21 13:02:52;;;;;;;0.80;0.53;;;10.80;99.90;;;;;;5054283;28;20435;-86
2022/12/21 13:05:40;;;;;;;0.40;0.30;;;10.90;99.90;;;;;;5054176;28;20466;-86
2022/12/21 13:08:21;;;;;;;0.40;0.40;;;10.80;99.90;;;;;;5053922;28;20938;-86
2022/12/21 13:10:55;;;;;;;0.30;0.30;;;10.80;99.90;;;;;;5054104;28;20944;-87
2022/12/21 13:13:30;;;;;;;0.70;0.40;;;10.80;99.90;;;;;;5054346;28;20476;-87
2022/12/21 13:16:03;;;;;;;0.40;0.30;;;10.80;99.90;;;;;;5054106;28;20434;-86
2022/12/21 13:18:33;;;;;;;0.40;0.30;;;10.70;99.90;;;;;;5054102;28;20918;-86
2022/12/21 13:21:01;;;;;;;0.57;0.37;;;10.70;99.90;;;;;;5054261;28;20431;-86
2022/12/21 13:23:38;;;;;;;0.73;0.47;;;10.60;99.90;;;;;;5053852;28;20478;-86